LIMJ/GOA METAR and TAF weather

Enter ICAO airport designator
Station Type Date Time Source
LIMJ METAR 2019/05/21 21:20 UTC NOAA

LIMJ 212120Z 11010KT 9999 FEW015 BKN025 16/14 Q1015


Station Type Date Time Source
LIMJ Decoded METAR 2019/05/21 21:20 UTC NOAA

Genova / Sestri, Italy (LIMJ) 44-25N 008-51E 3M
May 21, 2019 - 05:20 PM EDT / 2019.05.21 2120 UTC
Wind: from the ESE (110 degrees) at 12 MPH (10 KT):0
Visibility: greater than 7 mile(s):0
Sky conditions: mostly cloudy
Temperature: 60 F (16 C)
Dew Point: 57 F (14 C)
Relative Humidity: 87%
Pressure (altimeter): 29.97 in. Hg (1015 hPa)
ob: LIMJ 212120Z 11010KT 9999 FEW015 BKN025 16/14 Q1015
cycle: 21

Station Type Date Time Source
LIMJ TAF 2019/05/21 18:21 UTC NOAA

TAF LIMJ 211700Z 2118/2218 14010KT 9999 BKN030

Example: see airport list